Terminal Aerodrome Forecast
Issued by NWS

Home | Current Version | Previous Version | Text Only | Print | Product List | Glossary On
Versions: 1 2 3 4 5 6 7 8 9 10 11 12 13 14
309
FTUS41 KPBZ 291739
TAFAGC
TAF
KAGC 291739Z 2918/3018 VRB10G25KT 1SM -TSRA OVC015CB
     FM291900 21004KT P6SM VCTS BKN080CB
     FM300200 18004KT P6SM BKN100
     FM300800 21004KT 3SM BR BKN060
     FM301300 25005KT P6SM SCT050=

USA.gov is the U.S. government's official web portal to all federal, state and local government web resources and services.